Time;durP1;ratioP1;P1;durP2;ratioP2;P2;SDS_P1;SDS_P2;PMS_P1;PMS_P2;Temp;Humidity;BMP_temperature;BMP_pressure;BME280_temperature;BME280_humidity;BME280_pressure;Samples;Min_cycle;Max_cycle;Signal;HPM_P1;HPM_P2
2024/03/21 00:02:02;;;;;;;7.03;4.55;;;;;;;5.80;100.00;97007.09;5040781;28;20151;-66
2024/03/21 00:04:28;;;;;;;7.18;4.60;;;;;;;5.88;100.00;97009.75;5026745;28;20499;-67
2024/03/21 00:06:53;;;;;;;8.00;4.82;;;;;;;5.94;100.00;97018.53;5037037;28;20060;-66
2024/03/21 00:09:20;;;;;;;10.68;5.53;;;;;;;5.98;100.00;97018.69;5049159;28;20452;-65
2024/03/21 00:11:46;;;;;;;7.55;5.13;;;;;;;6.06;100.00;97020.56;5039896;28;20490;-65
2024/03/21 00:14:11;;;;;;;9.77;5.35;;;;;;;6.21;100.00;97011.84;5043123;28;20076;-65
2024/03/21 00:16:36;;;;;;;9.43;4.93;;;;;;;6.29;100.00;97019.13;5044289;28;20057;-65
2024/03/21 00:19:03;;;;;;;8.65;5.05;;;;;;;6.41;100.00;97014.88;5047613;28;20029;-67
2024/03/21 00:21:29;;;;;;;7.32;5.20;;;;;;;6.39;100.00;97017.16;5044723;28;20037;-64
2024/03/21 00:23:54;;;;;;;7.18;4.70;;;;;;;6.07;100.00;97014.81;5041534;28;20087;-64
2024/03/21 00:26:20;;;;;;;9.02;5.13;;;;;;;6.03;100.00;97018.50;5048969;28;28597;-64
2024/03/21 00:28:46;;;;;;;10.18;5.35;;;;;;;6.11;100.00;97010.28;5055768;28;20399;-64
2024/03/21 00:31:12;;;;;;;8.20;4.88;;;;;;;6.04;100.00;97007.31;5053697;28;20072;-67
2024/03/21 00:33:38;;;;;;;7.80;4.53;;;;;;;5.84;100.00;97006.09;5059621;28;20063;-66
2024/03/21 00:36:04;;;;;;;8.18;4.50;;;;;;;5.72;100.00;97006.00;5055324;28;20627;-66
2024/03/21 00:38:30;;;;;;;6.75;4.68;;;;;;;5.46;100.00;97003.41;5051323;28;20044;-65
2024/03/21 00:40:55;;;;;;;10.43;5.40;;;;;;;5.16;100.00;96998.69;5050008;28;20068;-66
2024/03/21 00:43:22;;;;;;;13.52;5.65;;;;;;;5.17;100.00;96999.53;5047514;28;20082;-65
2024/03/21 00:45:48;;;;;;;8.50;5.60;;;;;;;5.43;100.00;97001.34;5050464;28;20151;-65
2024/03/21 00:48:13;;;;;;;8.32;5.97;;;;;;;5.59;100.00;97010.53;5034967;28;20032;-65
2024/03/21 00:50:39;;;;;;;8.52;4.95;;;;;;;5.61;100.00;97002.06;5056410;28;20050;-65
2024/03/21 00:53:05;;;;;;;8.88;4.53;;;;;;;5.62;100.00;97004.47;5043167;28;20041;-66
2024/03/21 00:55:31;;;;;;;8.48;5.30;;;;;;;5.75;100.00;97006.16;5053766;28;20043;-66
2024/03/21 00:57:57;;;;;;;7.22;4.85;;;;;;;5.88;100.00;97008.97;5057532;28;20041;-65
2024/03/21 01:00:22;;;;;;;7.18;4.15;;;;;;;5.93;100.00;97006.06;5034733;28;20542;-67
2024/03/21 01:02:47;;;;;;;12.45;4.72;;;;;;;5.95;100.00;97006.53;5055994;28;20044;-68
2024/03/21 01:05:14;;;;;;;12.30;5.55;;;;;;;6.06;100.00;97010.47;5047102;28;20039;-66
2024/03/21 01:07:40;;;;;;;6.35;4.40;;;;;;;6.09;100.00;97006.31;5053954;28;20029;-67
2024/03/21 01:10:06;;;;;;;8.80;4.85;;;;;;;6.19;100.00;97008.63;5056923;28;20044;-66
2024/03/21 01:12:31;;;;;;;8.63;4.43;;;;;;;6.31;100.00;97010.66;5059208;28;20040;-65
2024/03/21 01:14:56;;;;;;;9.05;4.38;;;;;;;6.37;100.00;97013.97;5031789;28;20053;-66
2024/03/21 01:17:23;;;;;;;12.75;5.53;;;;;;;6.39;100.00;97004.38;5034935;28;20048;-66
2024/03/21 01:19:48;;;;;;;8.57;4.63;;;;;;;6.45;100.00;97010.41;5038822;28;20033;-65
2024/03/21 01:22:13;;;;;;;10.07;4.72;;;;;;;6.48;100.00;96998.84;5043779;28;20558;-66
2024/03/21 01:24:39;;;;;;;7.25;4.68;;;;;;;6.47;100.00;97002.69;5043020;28;20714;-66
2024/03/21 01:27:05;;;;;;;7.80;4.80;;;;;;;6.43;100.00;96997.13;5055101;28;20427;-68
2024/03/21 01:29:33;;;;;;;8.90;4.10;;;;;;;6.39;100.00;97000.81;5056868;28;20052;-65
2024/03/21 01:31:58;;;;;;;6.53;4.20;;;;;;;6.32;100.00;96998.66;5062579;28;20090;-65
2024/03/21 01:34:24;;;;;;;10.77;4.38;;;;;;;6.21;100.00;96994.72;5053355;28;20037;-66
2024/03/21 01:36:52;;;;;;;6.53;4.25;;;;;;;6.10;100.00;97000.56;5033053;28;20090;-65
2024/03/21 01:39:19;;;;;;;7.28;4.68;;;;;;;5.93;100.00;97003.34;5038307;28;20132;-65
2024/03/21 01:41:45;;;;;;;8.30;4.25;;;;;;;5.97;100.00;97006.25;5050957;28;20064;-66
2024/03/21 01:44:19;;;;;;;8.23;4.72;;;;;;;6.03;100.00;97007.63;5019869;28;20037;-66
2024/03/21 01:46:46;;;;;;;9.88;5.00;;;;;;;6.02;100.00;97003.34;5051627;28;20136;-66
2024/03/21 01:49:12;;;;;;;13.50;5.00;;;;;;;6.01;100.00;96999.00;5057630;28;20075;-66
2024/03/21 01:51:39;;;;;;;10.93;4.90;;;;;;;6.05;100.00;97006.19;5062216;28;20155;-66
2024/03/21 01:54:07;;;;;;;7.95;4.60;;;;;;;6.03;100.00;96999.47;5057713;28;20090;-66
2024/03/21 01:56:33;;;;;;;9.68;5.10;;;;;;;6.03;100.00;97004.91;5048007;28;20376;-66
2024/03/21 01:58:59;;;;;;;7.45;4.57;;;;;;;6.02;100.00;96997.88;5041727;28;20073;-67
2024/03/21 02:01:29;;;;;;;11.18;5.13;;;;;;;5.92;100.00;97007.19;5041438;28;20068;-64
2024/03/21 02:03:57;;;;;;;7.22;4.05;;;;;;;5.82;100.00;97008.38;5044546;28;20048;-64
2024/03/21 02:06:24;;;;;;;11.73;4.80;;;;;;;5.82;100.00;96996.69;5037874;28;20033;-63
2024/03/21 02:08:52;;;;;;;7.25;4.60;;;;;;;5.86;100.00;97005.78;5052644;28;20037;-64
2024/03/21 02:11:18;;;;;;;8.30;4.55;;;;;;;5.86;100.00;97009.28;5044035;28;20025;-63
2024/03/21 02:13:44;;;;;;;7.07;4.93;;;;;;;5.83;100.00;97014.59;5045906;28;20227;-66
2024/03/21 02:16:09;;;;;;;11.85;5.50;;;;;;;5.80;100.00;97015.22;5056155;28;20402;-64
2024/03/21 02:18:35;;;;;;;10.48;5.57;;;;;;;5.81;100.00;97011.41;5046336;28;20045;-64
2024/03/21 02:21:04;;;;;;;7.50;4.80;;;;;;;5.85;100.00;97013.16;5051080;28;20618;-64
2024/03/21 02:23:29;;;;;;;8.90;4.70;;;;;;;5.92;100.00;97015.34;5047029;28;20048;-66
2024/03/21 02:25:58;;;;;;;9.70;4.97;;;;;;;5.52;100.00;97005.59;5041267;28;20048;-65
2024/03/21 02:28:24;;;;;;;10.52;4.80;;;;;;;5.22;100.00;97003.97;5050338;28;20056;-65
2024/03/21 02:30:52;;;;;;;9.18;4.70;;;;;;;4.93;100.00;97010.91;5052497;28;20137;-64
2024/03/21 02:33:17;;;;;;;8.05;5.13;;;;;;;4.83;100.00;97009.31;5035695;28;20094;-65
2024/03/21 02:35:43;;;;;;;9.10;5.80;;;;;;;4.83;100.00;97008.53;5048783;28;20384;-65
2024/03/21 02:38:08;;;;;;;9.27;5.53;;;;;;;4.90;100.00;97012.34;5044455;28;20041;-64
2024/03/21 02:40:33;;;;;;;10.77;5.50;;;;;;;5.01;100.00;97012.03;5047697;28;20037;-64
2024/03/21 02:42:59;;;;;;;8.10;5.05;;;;;;;5.12;100.00;97022.19;5054078;28;20041;-64
2024/03/21 02:45:24;;;;;;;6.80;5.07;;;;;;;5.26;100.00;97018.50;5050726;28;20372;-65
2024/03/21 02:47:49;;;;;;;10.00;5.10;;;;;;;5.40;100.00;97018.28;5049219;28;20067;-65
2024/03/21 02:50:15;;;;;;;9.48;5.25;;;;;;;5.53;100.00;97023.50;5040495;28;20066;-65
2024/03/21 02:52:40;;;;;;;10.18;5.60;;;;;;;5.60;100.00;97019.47;5061393;28;20060;-65
2024/03/21 02:55:06;;;;;;;7.78;5.22;;;;;;;5.60;100.00;97012.16;5054131;28;20051;-66
2024/03/21 02:57:31;;;;;;;9.45;4.50;;;;;;;5.66;100.00;97018.19;5041241;28;20044;-63
2024/03/21 02:59:57;;;;;;;8.23;4.80;;;;;;;5.76;100.00;97025.97;5049789;28;20044;-64
2024/03/21 03:02:22;;;;;;;8.00;4.88;;;;;;;5.73;100.00;97010.31;5036128;28;20128;-64
2024/03/21 03:04:47;;;;;;;9.45;5.18;;;;;;;5.76;100.00;97015.09;5040078;28;20119;-66
2024/03/21 03:07:13;;;;;;;9.75;5.72;;;;;;;5.88;100.00;97007.03;5044139;28;20045;-66
2024/03/21 03:09:38;;;;;;;8.68;5.20;;;;;;;5.94;100.00;97018.53;5043971;28;20410;-67
2024/03/21 03:12:04;;;;;;;11.95;5.03;;;;;;;5.91;100.00;97021.91;5065007;28;20162;-66
2024/03/21 03:14:29;;;;;;;7.10;4.65;;;;;;;5.69;100.00;97010.19;5056416;28;20045;-66
2024/03/21 03:16:55;;;;;;;7.72;4.82;;;;;;;5.04;100.00;97008.63;5051784;28;20129;-66
2024/03/21 03:19:20;;;;;;;9.75;5.22;;;;;;;4.77;100.00;97007.88;5039670;28;20678;-66
2024/03/21 03:21:45;;;;;;;7.63;5.18;;;;;;;4.73;100.00;97009.66;5052651;28;20554;-65
2024/03/21 03:24:11;;;;;;;8.80;5.10;;;;;;;4.74;100.00;97016.69;5046075;28;20091;-65
2024/03/21 03:26:36;;;;;;;9.82;5.85;;;;;;;4.82;100.00;97007.72;5053554;28;20075;-67
2024/03/21 03:29:02;;;;;;;9.82;5.32;;;;;;;4.88;100.00;97011.06;5047998;28;20064;-65
2024/03/21 03:31:27;;;;;;;13.23;5.30;;;;;;;5.05;100.00;97015.69;5052506;28;20387;-65
2024/03/21 03:36:36;;;;;;;9.98;5.50;;;;;;;5.51;100.00;97044.78;5054804;28;20131;-65
2024/03/21 03:39:03;;;;;;;7.38;5.60;;;;;;;5.58;100.00;97043.47;5041024;28;20124;-67
2024/03/21 03:41:28;;;;;;;8.23;4.75;;;;;;;5.66;100.00;97054.31;5059745;28;20103;-66
2024/03/21 03:43:54;;;;;;;9.23;5.40;;;;;;;5.77;100.00;97051.25;5043591;28;20052;-66
2024/03/21 03:46:19;;;;;;;7.97;5.10;;;;;;;5.74;100.00;97067.09;5043345;28;20047;-66
2024/03/21 03:48:45;;;;;;;8.02;4.68;;;;;;;5.82;100.00;97065.44;5048869;28;20039;-66
2024/03/21 03:51:10;;;;;;;6.68;4.53;;;;;;;5.79;100.00;97049.00;5043367;28;20051;-65
2024/03/21 03:53:35;;;;;;;15.02;4.85;;;;;;;5.75;100.00;97044.19;5053568;28;20040;-65
2024/03/21 03:56:01;;;;;;;7.78;4.55;;;;;;;5.54;100.00;97041.41;5049718;28;20040;-67
2024/03/21 03:58:26;;;;;;;10.32;5.00;;;;;;;5.24;100.00;97039.72;5037060;28;20491;-67
2024/03/21 04:00:59;;;;;;;9.13;5.20;;;;;;;5.33;100.00;97037.78;5029998;28;20033;-66
2024/03/21 04:03:28;;;;;;;9.45;5.18;;;;;;;5.01;100.00;97050.81;5048235;28;20040;-66
2024/03/21 04:05:58;;;;;;;10.57;5.38;;;;;;;5.21;100.00;97062.91;5059215;28;20376;-66
2024/03/21 04:08:24;;;;;;;6.70;5.03;;;;;;;5.42;100.00;97051.34;5039175;28;20039;-65
2024/03/21 04:10:50;;;;;;;9.70;4.65;;;;;;;5.61;100.00;97054.50;5066561;28;20554;-66
2024/03/21 04:13:16;;;;;;;13.45;5.70;;;;;;;5.64;100.00;97051.13;5059130;28;20148;-66
2024/03/21 04:15:42;;;;;;;9.15;4.97;;;;;;;5.77;100.00;97048.53;5052391;28;20490;-64
2024/03/21 04:18:07;;;;;;;8.40;4.60;;;;;;;5.90;100.00;97048.28;5035432;28;20133;-66
2024/03/21 04:20:33;;;;;;;7.57;4.80;;;;;;;6.05;100.00;97055.13;5046343;28;20063;-66
2024/03/21 04:22:58;;;;;;;7.57;4.88;;;;;;;6.20;100.00;97061.91;5046761;28;20134;-66
2024/03/21 04:25:24;;;;;;;9.68;4.95;;;;;;;6.29;100.00;97051.78;5054361;28;20368;-67
2024/03/21 04:27:49;;;;;;;11.45;5.10;;;;;;;6.32;100.00;97058.50;5046670;28;20041;-66
2024/03/21 04:30:15;;;;;;;8.23;4.95;;;;;;;6.13;100.00;97057.00;5054103;28;20735;-67
2024/03/21 04:32:40;;;;;;;7.40;4.47;;;;;;;6.09;100.00;97056.06;5057538;28;20044;-66
2024/03/21 04:35:07;;;;;;;14.23;4.97;;;;;;;6.08;100.00;97065.34;5036440;28;20098;-68
2024/03/21 04:37:33;;;;;;;11.02;4.70;;;;;;;6.02;100.00;97068.59;5052461;28;20491;-67
2024/03/21 04:39:58;;;;;;;8.05;5.20;;;;;;;6.14;100.00;97082.28;5021574;28;20049;-67
2024/03/21 04:42:24;;;;;;;8.70;5.20;;;;;;;6.35;100.00;97082.31;5048784;28;20542;-67
2024/03/21 04:44:50;;;;;;;8.75;4.63;;;;;;;6.31;100.00;97087.63;5043258;28;20037;-67
2024/03/21 04:47:15;;;;;;;7.95;5.00;;;;;;;6.37;100.00;97101.81;5017957;28;20033;-67
2024/03/21 04:49:40;;;;;;;8.55;5.55;;;;;;;6.47;100.00;97106.09;5032638;28;20105;-66
2024/03/21 04:52:06;;;;;;;10.80;4.53;;;;;;;6.57;100.00;97113.88;5043955;28;20563;-67
2024/03/21 04:54:31;;;;;;;7.43;4.88;;;;;;;6.72;100.00;97126.09;5040667;28;20045;-67
2024/03/21 04:56:57;;;;;;;10.27;5.35;;;;;;;6.87;100.00;97122.00;5051474;28;20045;-66
2024/03/21 04:59:28;;;;;;;8.20;4.78;;;;;;;6.79;100.00;97123.66;5038525;28;20045;-67
2024/03/21 05:01:54;;;;;;;13.02;4.82;;;;;;;6.78;100.00;97140.31;5051436;28;20044;-66
2024/03/21 05:04:20;;;;;;;12.98;5.80;;;;;;;6.79;100.00;97136.44;5046073;28;20110;-67
2024/03/21 05:06:46;;;;;;;7.70;4.57;;;;;;;6.72;100.00;97133.47;5044436;28;20491;-66
2024/03/21 05:09:11;;;;;;;10.57;4.82;;;;;;;6.45;100.00;97136.34;5047940;28;20126;-66
2024/03/21 05:11:37;;;;;;;10.27;4.88;;;;;;;6.45;100.00;97136.34;5043288;28;20135;-66
2024/03/21 05:14:03;;;;;;;10.93;5.60;;;;;;;6.45;100.00;97130.91;5058843;28;20045;-66
2024/03/21 05:16:30;;;;;;;10.88;5.57;;;;;;;6.08;100.00;97136.03;5006478;28;20037;-68
2024/03/21 05:18:56;;;;;;;8.35;5.60;;;;;;;6.06;100.00;97121.97;5057092;28;20041;-66
2024/03/21 05:21:22;;;;;;;8.68;6.20;;;;;;;6.01;100.00;97127.59;5055482;28;20789;-67
2024/03/21 05:23:47;;;;;;;8.88;5.40;;;;;;;6.02;100.00;97129.19;5052452;28;20036;-67
2024/03/21 05:26:13;;;;;;;9.38;5.75;;;;;;;6.07;100.00;97129.03;5044831;28;20040;-67
2024/03/21 05:28:38;;;;;;;9.02;5.82;;;;;;;6.24;100.00;97124.63;5063323;28;20059;-66
2024/03/21 05:31:21;;;;;;;14.02;6.70;;;;;;;6.60;100.00;97121.38;5035561;28;20131;-65
2024/03/21 05:33:47;;;;;;;15.77;6.60;;;;;;;6.62;100.00;97121.84;5028406;28;20039;-67
2024/03/21 05:36:13;;;;;;;8.88;6.10;;;;;;;6.57;100.00;97113.06;5047881;28;20202;-67
2024/03/21 05:38:39;;;;;;;9.23;5.57;;;;;;;6.51;100.00;97109.75;5048088;28;20041;-67
2024/03/21 05:41:05;;;;;;;10.50;5.75;;;;;;;6.24;100.00;97113.75;5038191;28;20127;-66
2024/03/21 05:43:31;;;;;;;11.35;5.68;;;;;;;6.33;100.00;97119.94;5059733;28;20137;-69
2024/03/21 05:45:56;;;;;;;12.70;5.90;;;;;;;6.45;100.00;97113.78;5053458;28;20470;-67
2024/03/21 05:48:22;;;;;;;9.73;6.35;;;;;;;6.02;100.00;97121.03;5041501;28;21073;-66
2024/03/21 05:50:47;;;;;;;11.13;6.40;;;;;;;5.90;100.00;97124.41;5021771;28;20049;-67
2024/03/21 05:53:13;;;;;;;10.40;6.63;;;;;;;5.97;100.00;97129.38;5053640;28;20041;-65
2024/03/21 05:55:38;;;;;;;8.43;6.38;;;;;;;6.21;100.00;97133.44;5047907;28;20037;-66
2024/03/21 05:58:04;;;;;;;17.10;8.27;;;;;;;6.64;100.00;97126.94;5039759;28;20045;-65
2024/03/21 06:00:29;;;;;;;15.95;7.90;;;;;;;6.87;100.00;97139.13;5047571;28;20044;-66
2024/03/21 06:02:54;;;;;;;14.10;7.30;;;;;;;6.81;100.00;97162.22;5051460;28;20145;-66
2024/03/21 06:05:20;;;;;;;11.73;8.02;;;;;;;6.89;100.00;97169.53;5036524;28;20045;-65
2024/03/21 06:07:45;;;;;;;11.93;7.22;;;;;;;7.19;100.00;97161.31;5047788;28;20564;-67
2024/03/21 06:10:10;;;;;;;15.77;7.65;;;;;;;7.25;100.00;97157.25;5023769;28;20045;-66
2024/03/21 06:12:36;;;;;;;12.73;7.05;;;;;;;7.30;100.00;97153.53;5050708;28;20286;-66
2024/03/21 06:15:02;;;;;;;11.82;7.18;;;;;;;7.20;100.00;97148.47;5062544;28;20068;-66
2024/03/21 06:17:27;;;;;;;10.85;7.20;;;;;;;7.07;100.00;97155.78;5009598;28;20412;-66
2024/03/21 06:19:53;;;;;;;12.27;7.20;;;;;;;7.19;100.00;97147.69;5053463;28;20167;-67
2024/03/21 06:22:18;;;;;;;19.05;9.18;;;;;;;7.10;100.00;97146.19;5056829;28;20136;-65
2024/03/21 06:24:44;;;;;;;11.00;7.43;;;;;;;7.27;100.00;97159.63;5042883;28;20114;-65
2024/03/21 06:27:09;;;;;;;11.90;8.25;;;;;;;7.41;100.00;97159.38;5037479;28;20055;-65
2024/03/21 06:29:35;;;;;;;10.57;7.15;;;;;;;7.54;100.00;97165.66;5045472;28;20131;-65
2024/03/21 06:32:00;;;;;;;23.58;9.75;;;;;;;7.50;100.00;97167.47;5044563;28;20124;-66
2024/03/21 06:34:26;;;;;;;15.10;9.10;;;;;;;7.43;100.00;97168.00;5036277;28;20032;-66
2024/03/21 06:36:51;;;;;;;24.63;15.90;;;;;;;7.11;100.00;97178.50;5061458;28;20036;-66
2024/03/21 06:39:17;;;;;;;21.02;14.77;;;;;;;6.95;100.00;97166.63;5039909;28;20041;-66
2024/03/21 06:41:45;;;;;;;14.02;9.07;;;;;;;6.77;100.00;97169.47;5055057;28;20040;-66
2024/03/21 06:44:10;;;;;;;14.60;9.70;;;;;;;6.74;100.00;97164.69;5037642;28;20064;-66
2024/03/21 06:46:38;;;;;;;20.85;13.00;;;;;;;6.79;100.00;97177.28;5048525;28;20040;-66
2024/03/21 06:49:04;;;;;;;16.98;12.60;;;;;;;6.82;100.00;97180.16;5045377;28;20049;-66
2024/03/21 06:51:30;;;;;;;25.67;13.07;;;;;;;6.89;100.00;97185.09;5047391;28;20067;-66
2024/03/21 06:53:55;;;;;;;30.60;13.63;;;;;;;6.93;100.00;97183.28;5057880;28;20543;-66
2024/03/21 06:56:21;;;;;;;22.77;16.23;;;;;;;7.06;100.00;97198.59;5042434;28;20121;-66
2024/03/21 06:58:46;;;;;;;19.08;14.77;;;;;;;7.37;100.00;97205.56;5041925;28;20068;-66
2024/03/21 07:01:12;;;;;;;27.35;15.30;;;;;;;7.70;100.00;97198.56;5038264;28;20044;-65
2024/03/21 07:03:39;;;;;;;17.02;11.90;;;;;;;7.89;100.00;97200.78;5057516;28;20045;-66
2024/03/21 07:06:04;;;;;;;17.33;11.48;;;;;;;8.01;100.00;97209.78;5053929;28;20032;-65
2024/03/21 07:08:29;;;;;;;18.95;11.48;;;;;;;8.15;100.00;97206.72;5028281;28;20047;-66
2024/03/21 07:10:55;;;;;;;19.70;10.20;;;;;;;8.23;100.00;97199.59;5052024;28;20048;-66
2024/03/21 07:13:20;;;;;;;15.65;10.55;;;;;;;8.27;100.00;97197.78;5034847;28;20207;-65
2024/03/21 07:15:46;;;;;;;15.60;10.45;;;;;;;8.15;100.00;97204.00;5068888;28;20048;-65
2024/03/21 07:18:13;;;;;;;14.07;10.85;;;;;;;8.12;100.00;97201.97;5046517;28;20384;-65
2024/03/21 07:20:38;;;;;;;23.67;12.38;;;;;;;8.02;100.00;97216.81;5045907;28;20051;-67
2024/03/21 07:23:04;;;;;;;16.33;10.15;;;;;;;8.06;100.00;97210.69;5043113;28;20052;-65
2024/03/21 07:25:30;;;;;;;30.08;21.45;;;;;;;7.74;100.00;97207.66;5054088;28;20049;-66
2024/03/21 07:27:55;;;;;;;20.13;12.05;;;;;;;7.75;100.00;97220.16;5043585;28;20045;-66
2024/03/21 07:30:21;;;;;;;16.33;10.45;;;;;;;7.91;100.00;97236.69;5032770;28;20827;-66
2024/03/21 07:32:49;;;;;;;16.05;11.30;;;;;;;8.06;100.00;97233.31;5044799;28;20527;-67
2024/03/21 07:35:15;;;;;;;16.05;10.45;;;;;;;8.05;100.00;97242.66;5014136;28;20040;-67
2024/03/21 07:37:41;;;;;;;17.25;11.10;;;;;;;8.21;100.00;97249.06;5053277;28;20044;-67
2024/03/21 07:40:07;;;;;;;17.33;11.23;;;;;;;8.33;100.00;97261.13;5047607;28;20093;-67
2024/03/21 07:42:32;;;;;;;17.75;11.02;;;;;;;8.35;100.00;97258.84;5046018;28;20051;-67
2024/03/21 07:44:57;;;;;;;14.15;10.48;;;;;;;8.35;100.00;97262.38;5043456;28;20094;-67
2024/03/21 07:47:23;;;;;;;15.88;10.45;;;;;;;8.12;100.00;97272.09;5029255;28;20044;-65
2024/03/21 07:49:49;;;;;;;17.33;11.25;;;;;;;8.38;100.00;97274.56;5057804;28;20161;-66
2024/03/21 07:52:14;;;;;;;14.65;11.05;;;;;;;8.36;100.00;97283.09;5053813;28;20045;-66
2024/03/21 07:54:40;;;;;;;20.70;11.93;;;;;;;8.38;100.00;97286.28;5045419;28;20041;-67
2024/03/21 07:57:06;;;;;;;14.88;10.25;;;;;;;8.45;100.00;97287.69;5043221;28;20068;-66
2024/03/21 07:59:31;;;;;;;15.93;10.95;;;;;;;8.58;100.00;97290.09;5048018;28;20067;-66
2024/03/21 08:01:57;;;;;;;16.38;10.50;;;;;;;8.72;100.00;97292.50;5055743;28;20534;-67
2024/03/21 08:04:22;;;;;;;17.77;11.30;;;;;;;8.64;100.00;97292.59;5025788;28;20941;-66
2024/03/21 08:06:47;;;;;;;15.73;10.98;;;;;;;8.69;100.00;97301.38;5054098;28;20051;-66
2024/03/21 08:09:13;;;;;;;14.70;11.68;;;;;;;8.75;100.00;97301.94;5048968;28;20127;-66
2024/03/21 08:11:39;;;;;;;19.13;11.90;;;;;;;8.67;100.00;97306.38;5022062;28;20387;-67
2024/03/21 08:14:04;;;;;;;22.25;11.35;;;;;;;8.67;100.00;97300.91;5042032;28;20511;-66
2024/03/21 08:16:29;;;;;;;14.88;11.10;;;;;;;8.89;100.00;97299.69;5046308;28;20052;-67
2024/03/21 08:18:55;;;;;;;15.30;9.70;;;;;;;8.97;100.00;97303.47;5053747;28;20085;-67
2024/03/21 08:21:21;;;;;;;17.73;11.07;;;;;;;8.71;100.00;97303.75;5041551;28;20060;-67
2024/03/21 08:23:47;;;;;;;16.35;11.70;;;;;;;8.69;100.00;97303.31;5054084;28;20418;-67
2024/03/21 08:26:13;;;;;;;35.55;18.45;;;;;;;9.10;100.00;97302.31;5045266;28;20094;-67
2024/03/21 08:28:38;;;;;;;27.45;12.23;;;;;;;9.29;100.00;97296.28;5038642;28;20427;-65
2024/03/21 08:31:03;;;;;;;14.23;10.25;;;;;;;9.33;100.00;97301.84;5042286;28;20060;-65
2024/03/21 08:33:29;;;;;;;15.85;10.15;;;;;;;9.41;100.00;97300.13;5050844;28;20126;-65
2024/03/21 08:35:55;;;;;;;19.08;9.30;;;;;;;9.51;100.00;97307.88;5033369;28;20484;-65
2024/03/21 08:38:21;;;;;;;20.88;9.60;;;;;;;9.66;100.00;97289.94;5041948;28;20045;-66
2024/03/21 08:40:50;;;;;;;17.23;9.90;;;;;;;9.80;100.00;97290.34;5051431;28;20136;-66
2024/03/21 08:43:16;;;;;;;15.50;9.43;;;;;;;9.93;100.00;97289.16;5035256;28;20061;-66
2024/03/21 08:45:44;;;;;;;18.60;9.35;;;;;;;10.10;100.00;97299.03;5047463;28;20088;-66
2024/03/21 08:48:11;;;;;;;16.08;9.45;;;;;;;10.22;100.00;97297.38;5044105;28;20517;-66
2024/03/21 08:50:37;;;;;;;18.85;10.20;;;;;;;10.43;100.00;97291.72;5066891;28;20087;-66
2024/03/21 08:53:02;;;;;;;13.82;9.57;;;;;;;10.65;100.00;97293.84;5045843;28;20040;-66
2024/03/21 08:55:28;;;;;;;13.93;8.18;;;;;;;10.93;100.00;97284.75;5041369;28;20136;-66
2024/03/21 08:57:53;;;;;;;17.45;9.07;;;;;;;11.23;100.00;97276.03;5052454;28;20060;-65
2024/03/21 09:00:18;;;;;;;18.95;9.45;;;;;;;11.31;100.00;97283.28;5045013;28;20033;-65
2024/03/21 09:02:44;;;;;;;19.63;9.82;;;;;;;11.36;100.00;97285.75;5046933;28;20037;-65
2024/03/21 09:05:10;;;;;;;20.75;9.90;;;;;;;11.60;100.00;97292.94;5041426;28;20040;-65
2024/03/21 09:07:36;;;;;;;17.42;9.00;;;;;;;11.40;100.00;97285.84;5048070;28;20060;-66
2024/03/21 09:10:02;;;;;;;18.55;11.45;;;;;;;11.26;100.00;97294.53;5044893;28;20736;-65
2024/03/21 09:12:28;;;;;;;15.63;9.35;;;;;;;11.57;100.00;97292.84;5043797;28;20037;-65
2024/03/21 09:14:53;;;;;;;14.68;9.20;;;;;;;12.12;100.00;97301.06;5051765;28;20094;-65
2024/03/21 09:17:18;;;;;;;11.15;7.07;;;;;;;12.68;100.00;97303.31;5050846;28;20032;-66
2024/03/21 09:19:44;;;;;;;30.95;10.40;;;;;;;12.87;100.00;97298.91;5045980;28;20041;-65
2024/03/21 09:22:09;;;;;;;16.08;7.72;;;;;;;12.84;100.00;97294.97;5023750;28;20094;-66
2024/03/21 09:24:34;;;;;;;13.27;7.13;;;;;;;12.83;100.00;97296.09;5051827;28;20040;-66
2024/03/21 09:27:00;;;;;;;12.68;6.25;;;;;;;12.89;100.00;97302.91;5051295;28;20037;-65
2024/03/21 09:29:25;;;;;;;13.48;5.90;;;;;;;12.97;100.00;97295.56;5042872;28;20048;-64
2024/03/21 09:31:51;;;;;;;11.50;5.88;;;;;;;12.98;100.00;97299.88;5045373;28;20042;-64
2024/03/21 09:34:16;;;;;;;8.75;5.18;;;;;;;12.91;100.00;97305.25;5035677;28;20036;-65
2024/03/21 09:36:46;;;;;;;9.73;5.18;;;;;;;12.83;100.00;97304.34;5034654;28;20438;-65
2024/03/21 09:39:12;;;;;;;;;;;;;;;12.66;100.00;97293.84;5054679;28;20052;-64
2024/03/21 09:41:37;;;;;;;14.55;6.68;;;;;;;12.69;100.00;97298.59;5053880;28;19912;-65
2024/03/21 09:44:03;;;;;;;10.02;6.55;;;;;;;12.68;100.00;97295.06;5036747;28;20128;-65
2024/03/21 09:46:31;;;;;;;15.10;6.95;;;;;;;12.62;100.00;97291.84;5053571;28;20040;-67
2024/03/21 09:48:57;;;;;;;12.13;7.20;;;;;;;12.64;100.00;97302.47;5046811;28;20068;-65
2024/03/21 09:51:26;;;;;;;11.48;7.03;;;;;;;12.71;100.00;97304.53;5045736;28;20161;-65
2024/03/21 09:53:51;;;;;;;13.05;7.03;;;;;;;12.80;100.00;97311.41;5049687;28;20435;-66
2024/03/21 09:56:17;;;;;;;9.98;5.90;;;;;;;12.68;100.00;97310.78;5045459;28;20040;-66
2024/03/21 09:58:45;;;;;;;12.35;6.47;;;;;;;12.55;100.00;97315.63;5047131;28;20041;-67
2024/03/21 10:01:22;;;;;;;13.98;7.43;;;;;;;12.40;100.00;97315.34;5047302;28;20036;-66
2024/03/21 10:03:57;;;;;;;10.73;5.68;;;;;;;12.07;100.00;97315.91;5056112;28;20376;-65
2024/03/21 10:06:24;;;;;;;13.75;6.75;;;;;;;11.94;100.00;97325.41;5044376;28;20229;-66
2024/03/21 10:08:50;;;;;;;9.73;6.38;;;;;;;11.85;100.00;97325.63;5056945;28;20052;-66
2024/03/21 10:11:17;;;;;;;11.38;6.30;;;;;;;11.90;100.00;97325.34;5041322;28;20171;-65
2024/03/21 10:13:42;;;;;;;11.20;6.65;;;;;;;11.94;100.00;97322.66;5061382;28;20127;-66
2024/03/21 10:16:13;;;;;;;21.08;8.50;;;;;;;12.19;100.00;97326.75;5055397;28;20123;-66
2024/03/21 10:18:39;;;;;;;27.85;10.48;;;;;;;12.62;100.00;97315.75;5062503;28;20036;-67
2024/03/21 10:21:12;;;;;;;10.30;6.68;;;;;;;13.06;100.00;97320.06;5056258;28;20122;-66
2024/03/21 10:23:37;;;;;;;11.07;5.93;;;;;;;13.91;100.00;97317.78;5054856;28;20122;-66
2024/03/21 10:26:03;;;;;;;9.60;5.68;;;;;;;14.22;100.00;97307.53;5058076;28;20045;-67
2024/03/21 10:28:29;;;;;;;8.65;5.22;;;;;;;14.99;100.00;97293.38;5049584;28;20135;-65
2024/03/21 10:30:55;;;;;;;9.07;4.88;;;;;;;15.58;100.00;97301.72;5056310;28;20110;-66
2024/03/21 10:33:22;;;;;;;8.02;4.80;;;;;;;16.16;100.00;97306.38;5037730;28;20128;-66
2024/03/21 10:35:47;;;;;;;13.35;5.85;;;;;;;17.03;100.00;97306.59;5047382;28;20036;-65
2024/03/21 10:38:15;;;;;;;12.23;5.20;;;;;;;16.42;100.00;97299.75;5055985;28;20037;-65
2024/03/21 10:40:49;;;;;;;9.15;4.35;;;;;;;16.50;100.00;97297.78;5037302;28;20055;-66
2024/03/21 10:43:18;;;;;;;9.77;4.70;;;;;;;16.75;100.00;97303.38;5036208;28;20045;-65
2024/03/21 10:45:44;;;;;;;11.90;4.63;;;;;;;17.39;100.00;97308.19;5047365;28;20056;-65
2024/03/21 10:48:29;;;;;;;11.07;4.68;;;;;;;17.21;100.00;97301.84;5036962;28;20045;-67
2024/03/21 10:50:54;;;;;;;14.00;5.30;;;;;;;17.33;100.00;97308.97;5059010;28;20045;-70
2024/03/21 10:53:21;;;;;;;11.77;4.40;;;;;;;17.52;100.00;97308.56;5060226;28;20376;-68
2024/03/21 10:55:51;;;;;;;9.70;4.25;;;;;;;16.92;100.00;97304.59;5055524;28;20486;-66
2024/03/21 10:58:18;;;;;;;;;;;;;;;16.30;100.00;97302.09;5047067;28;20388;-66
2024/03/21 11:00:54;;;;;;;6.43;3.80;;;;;;;16.63;100.00;97303.75;5058005;28;19995;-66
2024/03/21 11:03:20;;;;;;;7.53;3.80;;;;;;;16.29;100.00;97301.28;5055545;28;20064;-67
2024/03/21 11:05:55;;;;;;;8.43;4.20;;;;;;;16.15;100.00;97301.22;5052209;28;20041;-66
2024/03/21 11:08:28;;;;;;;10.02;3.83;;;;;;;16.01;100.00;97299.22;5055660;28;20040;-67
2024/03/21 11:10:57;;;;;;;7.63;3.90;;;;;;;16.32;100.00;97302.50;5052407;28;20495;-68
2024/03/21 11:13:24;;;;;;;7.88;4.10;;;;;;;16.27;100.00;97309.16;5036325;28;20265;-65
2024/03/21 11:15:52;;;;;;;9.20;4.63;;;;;;;16.40;100.00;97321.47;5039980;28;20095;-68
2024/03/21 11:18:18;;;;;;;9.80;3.90;;;;;;;16.23;100.00;97316.66;5051726;28;20041;-66
2024/03/21 11:20:44;;;;;;;8.85;4.40;;;;;;;15.90;100.00;97314.91;5047376;28;20040;-66
2024/03/21 11:23:12;;;;;;;7.32;3.33;;;;;;;15.99;100.00;97318.94;5050327;28;20033;-66
2024/03/21 11:25:37;;;;;;;6.15;3.80;;;;;;;16.13;100.00;97325.69;5040136;28;20727;-66